Notice: Undefined index: language in /home/u908952976/domains/airgaviota-va.com/public_html/vam/index.php on line 25
AirGaviota-VA

... VIRTUAL FLIGHT...OUR PASSION



 FLIGHT DETAILS
Pilot: GVT462 Peter Voksan Aircraft: REDEYES - ANTONOV AN-2 (32V_64B) AN-2-GAVIOTAAIRVAAEROTAXI Distance: 76NM
Departure MUCC Arrival MUCM Duration 00:51
Validation Validated Type Regular Tail Number GV-AET
ZFW 4085 Block Fuel/Initial FOB 87/0 Flight Fuel 67
Passengers 8 Cargo 2000 Alternate MUCA
Departure Time Cruise Speed 100 Flight Level
Flight Type VFR Aircraft Type AN2 Weight Unit Kg
Date 09-05-2020 Pilot Comments Network IVAO
Crashed No Validator Comments Flight Rating -440

 ROUTE
ROUTE DCT
REMARKS
 FLIGHT FAILURES
Crashed OK Beacon off & Engine Running Fail KIAS Above 250 below 10000 FT OK
Lights OFF below 10000 FT Fail Lights ON above 10000 FT OK Stall OK
Overspeed OK Flight paused OK Refueling OK
Slew detected OK Taxi & Taxi lights off OK Take off & lights off OK
Landing & lights off Fail Landed in not planned airport OK Taxi Speed OK
Wrong altimeter in Take off OK Wrong altimeter in Landing Fail
 LANDING ANALYSIS
Landing wind 4º/2 kt Landing heading 333
Landing VS: -49.98 ft/min Landing IAS: 49.46 kt
Landing Force G 1.2 G Landing Bank -1.1
Landing Pitch 3.6 Landing Flaps 0
Navigation Lights ON Landing Lights OFF
Beacon Lights OFF Strobe Lights OFF
 FLIGHT MAP
 ALTITUDE CHART
 FLIGHT FINANCIAL REPORT
Cargo:2000 .Price per Cargo Unit:12 24,000.00
Number of PAX:8 .Price per PAX:100 800.00
TOTAL 24,800.00
 MAIN EVENTS
DATE EVENTIASALTITUDE
2020-05-09 20:38:57 SIM ACARS version 1.4.1023
2020-05-09 20:38:57 BOARDING023
2020-05-09 20:42:34 STARTING ENGINE 1 023
2020-05-09 20:42:34 BEACON LIGHT OFF & ENGINE ON023
2020-05-09 20:44:37 FLAPS EXTENSION 2 % 023
2020-05-09 20:44:37 FLAPS EXTENSION 4 % 023
2020-05-09 20:44:38 FLAPS EXTENSION 8 % 023
2020-05-09 20:44:38 FLAPS EXTENSION 12 % 023
2020-05-09 20:44:38 FLAPS EXTENSION 14 % 023
2020-05-09 20:44:38 FLAPS EXTENSION 18 % 023
2020-05-09 20:44:39 FLAPS EXTENSION 22 % 023
2020-05-09 20:44:39 FLAPS EXTENSION 26 % 023
2020-05-09 20:44:39 FLAPS EXTENSION 29 % 023
2020-05-09 20:44:39 FLAPS EXTENSION 31 % 023
2020-05-09 20:44:40 FLAPS EXTENSION 33 % 023
2020-05-09 20:44:40 FLAPS EXTENSION 37 % 023
2020-05-09 20:51:16 TAXI TO THE RWY 323
2020-05-09 20:55:57 TAKE OFF5024
2020-05-09 20:56:09 FLAPS EXTENSION 35 % 49142
2020-05-09 20:56:09 FLAPS EXTENSION 33 % 49143
2020-05-09 20:56:09 FLAPS EXTENSION 29 % 49145
2020-05-09 20:56:09 FLAPS EXTENSION 27 % 49147
2020-05-09 20:56:10 FLAPS EXTENSION 25 % 49148
2020-05-09 20:56:10 FLAPS EXTENSION 23 % 49151
2020-05-09 20:57:13 FLAPS EXTENSION 22 % 65534
2020-05-09 20:57:13 FLAPS EXTENSION 20 % 65536
2020-05-09 20:57:13 FLAPS EXTENSION 17 % 65537
2020-05-09 20:57:13 FLAPS EXTENSION 15 % 65539
2020-05-09 20:57:13 FLAPS EXTENSION 13 % 65540
2020-05-09 20:57:14 FLAPS EXTENSION 11 % 65541
2020-05-09 20:57:14 FLAPS EXTENSION 9 % 65542
2020-05-09 20:57:14 FLAPS EXTENSION 7 % 66543
2020-05-09 20:57:14 FLAPS EXTENSION 5 % 66544
2020-05-09 20:57:14 FLAPS EXTENSION 3 % 66545
2020-05-09 20:57:14 FLAPS EXTENSION 1 % 66546
2020-05-09 20:57:15 FLAPS EXTENSION 0 % 66547
2020-05-09 20:58:18 CRUISE81913
2020-05-09 20:58:58 CLIMBING851071
2020-05-09 20:59:21 LIGHTS OFF BELOW 10000 ft841165
2020-05-09 21:00:48 CRUISE991078
2020-05-09 21:02:18 DESCEND981114
2020-05-09 21:02:48 CRUISE921072
2020-05-09 21:05:58 DESCEND90670
2020-05-09 21:06:28 CRUISE88644
2020-05-09 21:08:08 CLIMBING87843
2020-05-09 21:08:38 CRUISE87892
2020-05-09 21:17:28 DESCEND100993
2020-05-09 21:18:38 CRUISE97965
2020-05-09 21:20:08 CLIMBING841104
2020-05-09 21:21:08 CRUISE891083
2020-05-09 21:30:08 DESCEND931240
2020-05-09 21:30:48 CRUISE931243
2020-05-09 21:33:18 CLIMBING831410
2020-05-09 21:33:58 CRUISE851465
2020-05-09 21:40:38 CLIMBING761674
2020-05-09 21:41:18 CRUISE761681
2020-05-09 21:41:48 DESCEND801528
2020-05-09 21:42:41 FLAPS EXTENSION 4 % 681157
2020-05-09 21:42:42 FLAPS EXTENSION 10 % 671156
2020-05-09 21:42:42 FLAPS EXTENSION 12 % 671156
2020-05-09 21:42:42 FLAPS EXTENSION 14 % 671155
2020-05-09 21:42:42 FLAPS EXTENSION 16 % 661155
2020-05-09 21:42:42 FLAPS EXTENSION 17 % 661154
2020-05-09 21:42:43 FLAPS EXTENSION 19 % 681154
2020-05-09 21:42:43 FLAPS EXTENSION 21 % 681154
2020-05-09 21:42:43 FLAPS EXTENSION 23 % 671153
2020-05-09 21:42:43 FLAPS EXTENSION 25 % 671153
2020-05-09 21:42:43 FLAPS EXTENSION 29 % 671152
2020-05-09 21:42:43 FLAPS EXTENSION 31 % 671152
2020-05-09 21:42:44 FLAPS EXTENSION 33 % 671152
2020-05-09 21:42:44 FLAPS EXTENSION 35 % 661151
2020-05-09 21:42:44 FLAPS EXTENSION 37 % 641151
2020-05-09 21:42:44 FLAPS EXTENSION 37 % 631150
2020-05-09 21:43:06 FLAPS EXTENSION 38 % 601101
2020-05-09 21:43:06 FLAPS EXTENSION 41 % 601101
2020-05-09 21:43:06 FLAPS EXTENSION 43 % 601102
2020-05-09 21:43:07 FLAPS EXTENSION 53 % 591104
2020-05-09 21:43:07 FLAPS EXTENSION 56 % 591105
2020-05-09 21:43:08 CRUISE591105
2020-05-09 21:43:08 FLAPS EXTENSION 61 % 591106
2020-05-09 21:43:08 FLAPS EXTENSION 63 % 591107
2020-05-09 21:43:08 FLAPS EXTENSION 68 % 581108
2020-05-09 21:43:09 FLAPS EXTENSION 73 % 581110
2020-05-09 21:43:29 FLAPS EXTENSION 76 % 581131
2020-05-09 21:43:29 FLAPS EXTENSION 78 % 571132
2020-05-09 21:43:30 FLAPS EXTENSION 83 % 561134
2020-05-09 21:43:30 FLAPS EXTENSION 86 % 561135
2020-05-09 21:43:30 FLAPS EXTENSION 88 % 561136
2020-05-09 21:43:30 FLAPS EXTENSION 90 % 561139
2020-05-09 21:43:31 FLAPS EXTENSION 95 % 561142
2020-05-09 21:43:31 FLAPS EXTENSION 98 % 561143
2020-05-09 21:43:31 FLAPS EXTENSION 100 % 561144
2020-05-09 21:44:08 CLIMBING591311
2020-05-09 21:45:38 CRUISE50734
2020-05-09 21:46:08 DESCEND47605
2020-05-09 21:46:48 CRUISE52460
2020-05-09 21:47:40 LANDING WITH LANDING LIGHTS OFF49424
2020-05-09 21:47:40 LANDING49424
2020-05-09 21:47:54 FLAPS EXTENSION 99 % 37423
2020-05-09 21:47:54 FLAPS EXTENSION 96 % 36423
2020-05-09 21:47:54 FLAPS EXTENSION 94 % 36423
2020-05-09 21:47:55 FLAPS EXTENSION 91 % 36423
2020-05-09 21:47:55 FLAPS EXTENSION 89 % 35423
2020-05-09 21:47:55 FLAPS EXTENSION 86 % 35423
2020-05-09 21:47:55 FLAPS EXTENSION 84 % 35423
2020-05-09 21:47:55 FLAPS EXTENSION 81 % 34423
2020-05-09 21:47:56 FLAPS EXTENSION 79 % 34423
2020-05-09 21:47:56 FLAPS EXTENSION 74 % 33423
2020-05-09 21:47:56 FLAPS EXTENSION 71 % 33423
2020-05-09 21:47:57 FLAPS EXTENSION 69 % 33423
2020-05-09 21:47:57 FLAPS EXTENSION 66 % 33423
2020-05-09 21:47:57 FLAPS EXTENSION 64 % 32423
2020-05-09 21:47:57 FLAPS EXTENSION 59 % 32423
2020-05-09 21:47:58 FLAPS EXTENSION 56 % 32423
2020-05-09 21:47:58 FLAPS EXTENSION 54 % 31423
2020-05-09 21:47:58 FLAPS EXTENSION 51 % 31423
2020-05-09 21:47:58 FLAPS EXTENSION 49 % 31423
2020-05-09 21:47:59 FLAPS EXTENSION 46 % 30423
2020-05-09 21:47:59 FLAPS EXTENSION 41 % 30423
2020-05-09 21:47:59 FLAPS EXTENSION 39 % 30423
2020-05-09 21:47:59 FLAPS EXTENSION 36 % 29423
2020-05-09 21:48:00 FLAPS EXTENSION 34 % 29423
2020-05-09 21:48:00 FLAPS EXTENSION 31 % 29423
2020-05-09 21:48:00 FLAPS EXTENSION 29 % 29423
2020-05-09 21:48:01 FLAPS EXTENSION 26 % 29423
2020-05-09 21:48:01 FLAPS EXTENSION 24 % 28423
2020-05-09 21:48:01 FLAPS EXTENSION 21 % 28423
2020-05-09 21:48:01 FLAPS EXTENSION 19 % 28423
2020-05-09 21:48:02 FLAPS EXTENSION 11 % 27423
2020-05-09 21:48:02 FLAPS EXTENSION 9 % 27423
2020-05-09 21:48:02 FLAPS EXTENSION 7 % 27423
2020-05-09 21:48:06 TAXI TO THE GATE20423
2020-05-09 21:52:37 STOPPING ENGINE 1 2423
 ACARS DATA
DATE IASGSALTITUDEFUEL CONSUMED OATFLIGHT STATUS
2020-05-09 20:39:57002210BOARDING
2020-05-09 20:40:57002210BOARDING
2020-05-09 20:41:57002210BOARDING
2020-05-09 20:42:57002210BOARDING
2020-05-09 20:43:57002220BOARDING
2020-05-09 20:44:57002230BOARDING
2020-05-09 20:45:57002240BOARDING
2020-05-09 20:46:57002250BOARDING
2020-05-09 20:47:57002260BOARDING
2020-05-09 20:48:57002270BOARDING
2020-05-09 20:49:57002280BOARDING
2020-05-09 20:50:57012290BOARDING
2020-05-09 20:51:570022100TAXI TO THE RWY
2020-05-09 20:52:5710822110TAXI TO THE RWY
2020-05-09 20:53:5712623120TAXI TO THE RWY
2020-05-09 20:54:572022130TAXI TO THE RWY
2020-05-09 20:55:57484023150TAXI TO THE RWY
2020-05-09 20:56:576552407170CLIMBING
2020-05-09 20:57:576770849190CLIMBING
2020-05-09 20:58:5784881066200CRUISE
2020-05-09 20:59:5787931182210CLIMBING
2020-05-09 21:00:5793951153230CRUISE
2020-05-09 21:01:5796971184240CRUISE
2020-05-09 21:02:57961019842527CRUISE
2020-05-09 21:03:5791998552727CRUISE
2020-05-09 21:04:5795997372828CRUISE
2020-05-09 21:05:5789946742928CRUISE
2020-05-09 21:06:5787917153028CRUISE
2020-05-09 21:07:5788928093229CRUISE
2020-05-09 21:08:5791978763328CRUISE
2020-05-09 21:09:57961038793528CRUISE
2020-05-09 21:10:57971028673628CRUISE
2020-05-09 21:11:57951008973728CRUISE
2020-05-09 21:12:57941009773928CRUISE
2020-05-09 21:13:57959810244028CRUISE
2020-05-09 21:14:57889311114228CRUISE
2020-05-09 21:15:579510010904328CRUISE
2020-05-09 21:16:579310010664428CRUISE
2020-05-09 21:17:579410010354628DESCEND
2020-05-09 21:18:5792979864728CRUISE
2020-05-09 21:19:57859010694828CRUISE
2020-05-09 21:20:57929510665028CLIMBING
2020-05-09 21:21:57899311485128CRUISE
2020-05-09 21:22:57879012015228CRUISE
2020-05-09 21:23:57879212145428CRUISE
2020-05-09 21:24:57929312165528CRUISE
2020-05-09 21:25:57939612105628CRUISE
2020-05-09 21:26:57889012295428CRUISE
2020-05-09 21:27:57919212525527CRUISE
2020-05-09 21:28:57919712165728CRUISE
2020-05-09 21:29:57919412465827CRUISE
2020-05-09 21:30:57949812165928CRUISE
2020-05-09 21:31:57909012906427CRUISE
2020-05-09 21:32:57909213406527CRUISE
2020-05-09 21:33:57858614636727CLIMBING
2020-05-09 21:34:57889015096827CRUISE
2020-05-09 21:35:57889715816927CRUISE
2020-05-09 21:36:57869516107027CRUISE
2020-05-09 21:37:57839015347227CRUISE
2020-05-09 21:38:57798514397327CRUISE
2020-05-09 21:39:57808915427427CRUISE
2020-05-09 21:40:57748217107526CLIMBING
2020-05-09 21:41:57818914827627DESCEND
2020-05-09 21:42:57606610987728DESCEND
2020-05-09 21:43:57545512647928CRUISE
2020-05-09 21:44:5745438738028CLIMBING
2020-05-09 21:45:5750486708129CRUISE
2020-05-09 21:46:5748484418229CRUISE
2020-05-09 21:47:5732314238329LANDED
2020-05-09 21:48:57574228429TAXI TO THE GATE
2020-05-09 21:49:5712114228529TAXI TO THE GATE
2020-05-09 21:50:5711144228629TAXI TO THE GATE
2020-05-09 21:51:57004228729TAXI TO THE GATE
2020-05-09 21:52:57104228729TAXI TO THE GATE